Time;durP1;ratioP1;P1;durP2;ratioP2;P2;SDS_P1;SDS_P2;PMS_P1;PMS_P2;Temp;Humidity;BMP_temperature;BMP_pressure;BME280_temperature;BME280_humidity;BME280_pressure;Samples;Min_cycle;Max_cycle;Signal;HPM_P1;HPM_P2
2022/03/18 00:02:14;;;;;;;;;;;;;;;;;;5011213;28;19917;-59
2022/03/18 00:04:41;;;;;;;;;;;;;;;;;;5011985;28;20314;-56
2022/03/18 00:07:07;;;;;;;;;;;;;;;;;;5010941;28;19973;-55
2022/03/18 00:09:34;;;;;;;;;;;;;;;;;;5015204;28;19944;-52
2022/03/18 00:12:00;;;;;;;;;;;;;;;;;;5015707;28;20390;-53
2022/03/18 00:14:27;;;;;;;;;;;;;;;;;;5015458;28;19909;-56
2022/03/18 00:16:54;;;;;;;;;;;;;;;;;;5015134;28;20004;-53
2022/03/18 00:19:20;;;;;;;;;;;;;;;;;;5015039;28;20001;-51
2022/03/18 00:21:47;;;;;;;;;;;;;;;;;;5014997;28;19916;-58
2022/03/18 00:24:13;;;;;;;;;;;;;;;;;;5015497;28;19910;-50
2022/03/18 00:26:39;;;;;;;;;;;;;;;;;;5015360;28;19988;-51
2022/03/18 00:29:06;;;;;;;;;;;;;;;;;;5015198;28;19909;-55
2022/03/18 00:31:32;;;;;;;;;;;;;;;;;;5014522;28;20336;-53
2022/03/18 00:33:59;;;;;;;;;;;;;;;;;;5014641;28;20379;-55
2022/03/18 00:36:25;;;;;;;;;;;;;;;;;;5015006;28;19910;-57
2022/03/18 00:38:52;;;;;;;;;;;;;;;;;;5014450;28;19983;-53
2022/03/18 00:41:18;;;;;;;;;;;;;;;;;;5014720;28;20012;-50
2022/03/18 00:43:45;;;;;;;;;;;;;;;;;;5014628;28;19913;-50
2022/03/18 00:46:11;;;;;;;;;;;;;;;;;;5014699;28;20368;-59
2022/03/18 00:54:07;;;;;;;;;;;;;;;;;;5014804;28;19913;-47
2022/03/18 00:56:33;;;;;;;;;;;;;;;;;;5013993;28;19916;-51
2022/03/18 00:59:00;;;;;;;;;;;;;;;;;;5013421;28;20024;-52
2022/03/18 01:01:26;;;;;;;;;;;;;;;;;;5014257;28;19916;-53
2022/03/18 01:03:53;;;;;;;;;;;;;;;;;;5014360;28;19937;-51
2022/03/18 01:06:19;;;;;;;;;;;;;;;;;;5014301;28;19913;-56
2022/03/18 01:08:46;;;;;;;;;;;;;;;;;;5014298;28;20000;-58
2022/03/18 01:11:12;;;;;;;;;;;;;;;;;;5014474;28;19964;-47
2022/03/18 01:13:39;;;;;;;;;;;;;;;;;;5013561;28;19913;-59
2022/03/18 01:16:05;;;;;;;;;;;;;;;;;;5014290;28;19909;-53
2022/03/18 01:18:32;;;;;;;;;;;;;;;;;;5013671;28;19952;-52
2022/03/18 01:20:58;;;;;;;;;;;;;;;;;;5013281;28;19917;-58
2022/03/18 01:23:25;;;;;;;;;;;;;;;;;;5013300;28;20422;-53
2022/03/18 01:25:51;;;;;;;;;;;;;;;;;;5013962;28;20375;-50
2022/03/18 01:28:18;;;;;;;;;;;;;;;;;;5013686;28;20056;-56
2022/03/18 01:30:44;;;;;;;;;;;;;;;;;;5013995;28;19920;-57
2022/03/18 01:33:11;;;;;;;;;;;;;;;;;;5014353;28;19916;-55
2022/03/18 01:35:37;;;;;;;;;;;;;;;;;;5014031;28;19910;-50
2022/03/18 01:38:04;;;;;;;;;;;;;;;;;;5013735;28;19921;-57
2022/03/18 01:40:31;;;;;;;;;;;;;;;;;;5013354;28;20254;-57
2022/03/18 01:42:57;;;;;;;;;;;;;;;;;;5013748;28;19909;-50
2022/03/18 01:45:25;;;;;;;;;;;;;;;;;;5014009;28;19953;-55
2022/03/18 01:47:51;;;;;;;;;;;;;;;;;;5013565;28;19949;-59
2022/03/18 01:50:18;;;;;;;;;;;;;;;;;;5014163;28;19909;-57
2022/03/18 01:52:44;;;;;;;;;;;;;;;;;;5013619;28;20383;-53
2022/03/18 01:55:10;;;;;;;;;;;;;;;;;;5013257;28;20387;-46
2022/03/18 01:57:37;;;;;;;;;;;;;;;;;;5013339;28;20356;-50
2022/03/18 02:00:04;;;;;;;;;;;;;;;;;;5013531;28;19986;-55
2022/03/18 02:02:31;;;;;;;;;;;;;;;;;;5013540;28;20322;-48
2022/03/18 02:04:58;;;;;;;;;;;;;;;;;;5012162;28;19949;-52
2022/03/18 02:07:24;;;;;;;;;;;;;;;;;;4993945;28;19979;-60
2022/03/18 02:09:50;;;;;;;;;;;;;;;;;;4994107;28;19933;-60
2022/03/18 02:12:17;;;;;;;;;;;;;;;;;;4994121;28;19910;-59
2022/03/18 02:14:44;;;;;;;;;;;;;;;;;;4994015;28;19917;-51
2022/03/18 02:17:10;;;;;;;;;;;;;;;;;;4993676;28;19981;-52
2022/03/18 02:19:37;;;;;;;;;;;;;;;;;;4993260;28;19945;-47
2022/03/18 02:22:03;;;;;;;;;;;;;;;;;;4993551;28;20380;-59
2022/03/18 02:24:29;;;;;;;;;;;;;;;;;;4993547;28;20016;-60
2022/03/18 02:26:56;;;;;;;;;;;;;;;;;;4993218;28;19957;-54
2022/03/18 02:29:23;;;;;;;;;;;;;;;;;;4993198;28;19910;-58
2022/03/18 02:31:49;;;;;;;;;;;;;;;;;;4992909;28;19923;-56
2022/03/18 02:34:15;;;;;;;;;;;;;;;;;;4993241;28;19988;-59
2022/03/18 02:36:42;;;;;;;;;;;;;;;;;;4992987;28;19929;-59
2022/03/18 02:39:08;;;;;;;;;;;;;;;;;;4993101;28;19922;-57
2022/03/18 02:41:35;;;;;;;;;;;;;;;;;;4992896;28;19939;-59
2022/03/18 02:44:05;;;;;;;;;;;;;;;;;;4991970;28;21370;-57
2022/03/18 02:46:32;;;;;;;;;;;;;;;;;;4992748;28;19910;-56
2022/03/18 02:48:59;;;;;;;;;;;;;;;;;;4993238;28;19910;-59
2022/03/18 02:51:26;;;;;;;;;;;;;;;;;;4992851;28;19961;-57
2022/03/18 02:53:52;;;;;;;;;;;;;;;;;;4993120;28;19909;-54
2022/03/18 02:56:18;;;;;;;;;;;;;;;;;;4993134;28;20009;-58
2022/03/18 02:58:45;;;;;;;;;;;;;;;;;;4992446;28;20264;-55
2022/03/18 03:01:11;;;;;;;;;;;;;;;;;;4992712;28;20308;-53
2022/03/18 03:03:38;;;;;;;;;;;;;;;;;;4992105;28;20292;-56
2022/03/18 03:08:49;;;;;;;;;;;;;;;;;;4993486;28;19942;-59
2022/03/18 03:11:16;;;;;;;;;;;;;;;;;;4992742;28;19917;-60
2022/03/18 03:13:43;;;;;;;;;;;;;;;;;;4992706;28;20281;-58
2022/03/18 03:16:09;;;;;;;;;;;;;;;;;;4992443;28;19913;-59
2022/03/18 03:18:36;;;;;;;;;;;;;;;;;;4991877;28;20066;-59
2022/03/18 03:21:02;;;;;;;;;;;;;;;;;;4992466;28;19910;-58
2022/03/18 03:23:29;;;;;;;;;;;;;;;;;;4992026;28;19997;-56
2022/03/18 03:25:55;;;;;;;;;;;;;;;;;;4992831;28;20292;-57
2022/03/18 03:28:21;;;;;;;;;;;;;;;;;;4992671;28;20440;-59
2022/03/18 03:30:48;;;;;;;;;;;;;;;;;;4992252;28;20329;-58
2022/03/18 03:33:14;;;;;;;;;;;;;;;;;;4992629;28;19945;-54
2022/03/18 03:35:41;;;;;;;;;;;;;;;;;;4992137;28;19910;-61
2022/03/18 03:38:09;;;;;;;;;;;;;;;;;;4991636;28;20025;-61
2022/03/18 03:40:36;;;;;;;;;;;;;;;;;;4992397;28;19997;-58
2022/03/18 03:43:03;;;;;;;;;;;;;;;;;;4993629;28;19910;-59
2022/03/18 03:45:29;;;;;;;;;;;;;;;;;;4995960;28;19921;-60
2022/03/18 03:47:56;;;;;;;;;;;;;;;;;;4996215;28;20360;-57
2022/03/18 03:50:22;;;;;;;;;;;;;;;;;;4996391;28;20365;-57
2022/03/18 03:52:49;;;;;;;;;;;;;;;;;;4996193;28;19979;-54
2022/03/18 03:55:15;;;;;;;;;;;;;;;;;;4995704;28;19910;-54
2022/03/18 03:57:42;;;;;;;;;;;;;;;;;;4995196;28;20376;-53
2022/03/18 04:00:08;;;;;;;;;;;;;;;;;;4995586;28;20360;-53
2022/03/18 04:02:37;;;;;;;;;;;;;;;;;;4996264;28;19945;-58
2022/03/18 04:05:07;;;;;;;;;;;;;;;;;;4995977;28;19910;-59
2022/03/18 04:07:34;;;;;;;;;;;;;;;;;;4995903;28;19965;-54
2022/03/18 04:10:00;;;;;;;;;;;;;;;;;;4995759;28;20364;-57
2022/03/18 04:12:27;;;;;;;;;;;;;;;;;;4995236;28;19910;-57
2022/03/18 04:14:53;;;;;;;;;;;;;;;;;;4995656;28;19964;-57
2022/03/18 04:17:20;;;;;;;;;;;;;;;;;;4995852;28;19926;-55
2022/03/18 04:19:46;;;;;;;;;;;;;;;;;;4995656;28;19917;-60
2022/03/18 04:22:13;;;;;;;;;;;;;;;;;;4995802;28;19910;-58
2022/03/18 04:24:39;;;;;;;;;;;;;;;;;;4995651;28;19914;-59
2022/03/18 04:27:06;;;;;;;;;;;;;;;;;;4995277;28;19910;-58
2022/03/18 04:29:33;;;;;;;;;;;;;;;;;;4994201;28;19910;-58
2022/03/18 04:32:00;;;;;;;;;;;;;;;;;;4995873;28;19921;-55
2022/03/18 04:34:27;;;;;;;;;;;;;;;;;;4995188;28;19910;-52
2022/03/18 04:36:53;;;;;;;;;;;;;;;;;;4994640;28;20376;-48
2022/03/18 04:39:20;;;;;;;;;;;;;;;;;;4993755;28;20004;-56
2022/03/18 04:41:46;;;;;;;;;;;;;;;;;;4994446;28;19909;-59
2022/03/18 04:44:13;;;;;;;;;;;;;;;;;;4994940;28;20419;-58
2022/03/18 04:46:39;;;;;;;;;;;;;;;;;;4995192;28;20302;-51
2022/03/18 04:49:06;;;;;;;;;;;;;;;;;;4995282;28;19914;-56
2022/03/18 04:51:32;;;;;;;;;;;;;;;;;;4994726;28;19988;-52
2022/03/18 04:53:59;;;;;;;;;;;;;;;;;;4994584;28;19910;-54
2022/03/18 04:59:10;;;;;;;;;;;;;;;;;;4994893;28;19944;-54
2022/03/18 05:01:36;;;;;;;;;;;;;;;;;;4994736;28;19972;-51
2022/03/18 05:04:02;;;;;;;;;;;;;;;;;;4994625;28;19953;-55
2022/03/18 05:06:30;;;;;;;;;;;;;;;;;;5004372;28;19913;-56
2022/03/18 05:08:56;;;;;;;;;;;;;;;;;;5014013;28;19959;-56
2022/03/18 05:11:22;;;;;;;;;;;;;;;;;;5014086;28;19913;-54
2022/03/18 05:13:49;;;;;;;;;;;;;;;;;;4996456;28;19914;-57
2022/03/18 05:16:15;;;;;;;;;;;;;;;;;;5014095;28;20383;-57
2022/03/18 05:18:42;;;;;;;;;;;;;;;;;;5014210;28;19918;-55
2022/03/18 05:21:08;;;;;;;;;;;;;;;;;;5013490;28;19916;-58
2022/03/18 05:23:35;;;;;;;;;;;;;;;;;;5013896;28;19980;-52
2022/03/18 05:26:01;;;;;;;;;;;;;;;;;;5013733;28;20000;-58
2022/03/18 05:28:28;;;;;;;;;;;;;;;;;;5013675;28;20019;-57
2022/03/18 05:30:55;;;;;;;;;;;;;;;;;;5013958;28;19956;-48
2022/03/18 05:33:21;;;;;;;;;;;;;;;;;;5013600;28;19996;-53
2022/03/18 05:35:48;;;;;;;;;;;;;;;;;;5013282;28;19909;-59
2022/03/18 05:38:14;;;;;;;;;;;;;;;;;;5013792;28;19922;-54
2022/03/18 05:40:41;;;;;;;;;;;;;;;;;;5013882;28;19931;-56
2022/03/18 05:43:08;;;;;;;;;;;;;;;;;;5013864;28;19975;-52
2022/03/18 05:45:34;;;;;;;;;;;;;;;;;;5013606;28;19916;-51
2022/03/18 05:48:01;;;;;;;;;;;;;;;;;;4996108;28;19913;-59
2022/03/18 05:50:27;;;;;;;;;;;;;;;;;;5013368;28;20006;-58
2022/03/18 05:52:55;;;;;;;;;;;;;;;;;;5013856;28;20328;-61
2022/03/18 05:55:21;;;;;;;;;;;;;;;;;;5013539;28;20256;-60
2022/03/18 05:57:48;;;;;;;;;;;;;;;;;;5013518;28;20383;-51
2022/03/18 06:00:15;;;;;;;;;;;;;;;;;;5013567;28;20371;-58
2022/03/18 06:02:42;;;;;;;;;;;;;;;;;;5012413;28;19935;-59
2022/03/18 06:05:08;;;;;;;;;;;;;;;;;;5012987;28;19910;-56
2022/03/18 06:07:35;;;;;;;;;;;;;;;;;;5013018;28;20006;-55
2022/03/18 06:12:46;;;;;;;;;;;;;;;;;;5012833;28;19931;-57
2022/03/18 06:15:12;;;;;;;;;;;;;;;;;;5013104;28;19913;-56
2022/03/18 06:17:38;;;;;;;;;;;;;;;;;;5012988;28;19962;-60
2022/03/18 06:20:05;;;;;;;;;;;;;;;;;;5013272;28;19913;-58
2022/03/18 06:22:31;;;;;;;;;;;;;;;;;;5012371;28;19906;-57
2022/03/18 06:24:58;;;;;;;;;;;;;;;;;;5013017;28;19916;-60
2022/03/18 06:27:24;;;;;;;;;;;;;;;;;;5012857;28;19909;-46
2022/03/18 06:29:51;;;;;;;;;;;;;;;;;;5012798;28;19996;-56
2022/03/18 06:32:17;;;;;;;;;;;;;;;;;;5013346;28;20001;-55
2022/03/18 06:34:44;;;;;;;;;;;;;;;;;;5012735;28;19916;-62
2022/03/18 06:37:10;;;;;;;;;;;;;;;;;;5012593;28;19944;-54
2022/03/18 06:39:37;;;;;;;;;;;;;;;;;;5012233;28;19917;-59
2022/03/18 06:42:04;;;;;;;;;;;;;;;;;;5012005;28;20353;-56
2022/03/18 06:44:31;;;;;;;;;;;;;;;;;;5012602;28;19917;-59
2022/03/18 06:46:57;;;;;;;;;;;;;;;;;;5012669;28;19985;-53
2022/03/18 06:49:24;;;;;;;;;;;;;;;;;;5011927;28;19917;-57
2022/03/18 06:51:50;;;;;;;;;;;;;;;;;;5012207;28;19916;-57
2022/03/18 06:54:17;;;;;;;;;;;;;;;;;;5012612;28;19917;-46
2022/03/18 06:56:44;;;;;;;;;;;;;;;;;;5012156;28;19916;-58
2022/03/18 06:59:10;;;;;;;;;;;;;;;;;;5012475;28;19924;-58
2022/03/18 07:01:37;;;;;;;;;;;;;;;;;;5011704;28;19913;-53
2022/03/18 07:04:03;;;;;;;;;;;;;;;;;;5012459;28;19921;-54
2022/03/18 07:06:29;;;;;;;;;;;;;;;;;;5012425;28;19913;-58
2022/03/18 07:08:56;;;;;;;;;;;;;;;;;;5012403;28;19909;-55
2022/03/18 07:11:23;;;;;;;;;;;;;;;;;;5011907;28;19910;-55
2022/03/18 07:13:49;;;;;;;;;;;;;;;;;;5012162;28;19993;-62
2022/03/18 07:19:00;;;;;;;;;;;;;;;;;;5017016;28;19972;-58
2022/03/18 07:21:27;;;;;;;;;;;;;;;;;;5015816;28;19909;-61
2022/03/18 07:23:53;;;;;;;;;;;;;;;;;;5015793;28;19916;-58
2022/03/18 07:26:20;;;;;;;;;;;;;;;;;;5015823;28;19959;-50
2022/03/18 07:28:46;;;;;;;;;;;;;;;;;;5016330;28;20360;-56
2022/03/18 07:31:12;;;;;;;;;;;;;;;;;;5015839;28;20390;-60
2022/03/18 07:33:39;;;;;;;;;;;;;;;;;;5015874;28;20396;-57
2022/03/18 07:36:05;;;;;;;;;;;;;;;;;;5016000;28;20300;-62
2022/03/18 07:38:32;;;;;;;;;;;;;;;;;;5016075;28;20252;-62
2022/03/18 07:40:58;;;;;;;;;;;;;;;;;;5015715;28;19910;-55
2022/03/18 07:43:25;;;;;;;;;;;;;;;;;;5016150;28;20004;-59
2022/03/18 07:45:51;;;;;;;;;;;;;;;;;;5016015;28;19916;-59
2022/03/18 07:48:18;;;;;;;;;;;;;;;;;;5015674;28;20315;-59
2022/03/18 07:50:45;;;;;;;;;;;;;;;;;;5016398;28;19955;-59
2022/03/18 07:53:11;;;;;;;;;;;;;;;;;;4998614;28;19956;-53
2022/03/18 07:55:38;;;;;;;;;;;;;;;;;;5015738;28;19920;-58
2022/03/18 07:58:06;;;;;;;;;;;;;;;;;;5016126;28;19921;-60
2022/03/18 08:00:32;;;;;;;;;;;;;;;;;;5015146;28;19909;-53
2022/03/18 08:02:59;;;;;;;;;;;;;;;;;;5016140;28;19913;-57
2022/03/18 08:05:25;;;;;;;;;;;;;;;;;;5013836;28;20036;-55
2022/03/18 08:07:53;;;;;;;;;;;;;;;;;;5015572;28;20004;-57
2022/03/18 08:10:19;;;;;;;;;;;;;;;;;;5015843;28;19913;-51
2022/03/18 08:12:46;;;;;;;;;;;;;;;;;;5015753;28;19909;-61
2022/03/18 08:15:13;;;;;;;;;;;;;;;;;;5015387;28;19982;-59
2022/03/18 08:17:39;;;;;;;;;;;;;;;;;;5015390;28;19927;-57
2022/03/18 08:20:06;;;;;;;;;;;;;;;;;;5015995;28;19910;-53
2022/03/18 08:22:32;;;;;;;;;;;;;;;;;;5015388;28;19996;-51
2022/03/18 08:25:01;;;;;;;;;;;;;;;;;;5014984;28;19909;-56
2022/03/18 08:27:28;;;;;;;;;;;;;;;;;;5015519;28;19956;-59
2022/03/18 08:29:59;;;;;;;;;;;;;;;;;;5014922;28;19910;-52
2022/03/18 08:32:25;;;;;;;;;;;;;;;;;;5015575;28;19956;-54
2022/03/18 08:34:52;;;;;;;;;;;;;;;;;;5014712;28;19916;-57
2022/03/18 08:38:07;;;;;;;;;;;;;;;;;;5015119;28;19921;-60
2022/03/18 08:40:05;;;;;;;;;;;;;;;;;;5001184;28;20365;-57
2022/03/18 08:42:31;;;;;;;;;;;;;;;;;;5015035;28;20340;-60
2022/03/18 08:44:58;;;;;;;;;;;;;;;;;;5014985;28;19984;-60
2022/03/18 08:47:24;;;;;;;;;;;;;;;;;;5015128;28;19910;-60
2022/03/18 08:49:51;;;;;;;;;;;;;;;;;;5015065;28;19972;-57
2022/03/18 08:52:17;;;;;;;;;;;;;;;;;;5015217;28;20324;-58
2022/03/18 08:54:43;;;;;;;;;;;;;;;;;;5015337;28;19909;-59
2022/03/18 08:57:10;;;;;;;;;;;;;;;;;;5014744;28;19919;-55
2022/03/18 08:59:37;;;;;;;;;;;;;;;;;;5015205;28;19949;-59
2022/03/18 09:02:03;;;;;;;;;;;;;;;;;;5015510;28;20000;-58
2022/03/18 09:04:29;;;;;;;;;;;;;;;;;;5014775;28;19925;-61
2022/03/18 09:06:56;;;;;;;;;;;;;;;;;;5014841;28;20344;-59
2022/03/18 09:09:22;;;;;;;;;;;;;;;;;;5014811;28;20375;-55
2022/03/18 09:11:49;;;;;;;;;;;;;;;;;;5014300;28;20370;-58
2022/03/18 09:14:15;;;;;;;;;;;;;;;;;;5014728;28;19917;-57
2022/03/18 09:16:42;;;;;;;;;;;;;;;;;;5014328;28;19945;-53
2022/03/18 09:19:08;;;;;;;;;;;;;;;;;;5014733;28;19933;-59
2022/03/18 09:21:35;;;;;;;;;;;;;;;;;;5014504;28;20426;-49
2022/03/18 09:24:01;;;;;;;;;;;;;;;;;;5014511;28;19917;-54
2022/03/18 09:26:28;;;;;;;;;;;;;;;;;;4996949;28;19915;-57
2022/03/18 09:28:54;;;;;;;;;;;;;;;;;;5014074;28;20336;-56
2022/03/18 09:31:21;;;;;;;;;;;;;;;;;;5014302;28;19955;-57
2022/03/18 09:33:48;;;;;;;;;;;;;;;;;;5013830;28;19909;-57
2022/03/18 09:36:18;;;;;;;;;;;;;;;;;;5014288;28;19906;-58
2022/03/18 09:38:45;;;;;;;;;;;;;;;;;;5013675;28;19925;-58
2022/03/18 09:41:11;;;;;;;;;;;;;;;;;;5012845;28;19920;-59
2022/03/18 09:43:38;;;;;;;;;;;;;;;;;;5013847;28;20061;-58
2022/03/18 09:46:04;;;;;;;;;;;;;;;;;;5013435;28;20301;-59
2022/03/18 09:48:31;;;;;;;;;;;;;;;;;;5013657;28;19909;-55
2022/03/18 09:50:58;;;;;;;;;;;;;;;;;;5013370;28;19995;-54
2022/03/18 09:53:24;;;;;;;;;;;;;;;;;;5013357;28;20348;-57
2022/03/18 09:55:54;;;;;;;;;;;;;;;;;;5013527;28;19910;-57
2022/03/18 09:58:20;;;;;;;;;;;;;;;;;;5013723;28;19918;-58
2022/03/18 10:00:47;;;;;;;;;;;;;;;;;;5013222;28;20375;-57
2022/03/18 10:03:13;;;;;;;;;;;;;;;;;;5017965;28;19921;-58
2022/03/18 10:05:40;;;;;;;;;;;;;;;;;;5033363;28;19956;-60
2022/03/18 10:08:06;;;;;;;;;;;;;;;;;;5033346;28;19963;-58
2022/03/18 10:10:33;;;;;;;;;;;;;;;;;;5033528;28;20011;-51
2022/03/18 10:13:00;;;;;;;;;;;;;;;;;;5033299;28;19920;-52
2022/03/18 10:15:30;;;;;;;;;;;;;;;;;;5033089;28;19913;-58
2022/03/18 10:17:56;;;;;;;;;;;;;;;;;;5032884;28;20030;-58
2022/03/18 10:20:23;;;;;;;;;;;;;;;;;;5033446;28;19909;-58
2022/03/18 10:22:50;;;;;;;;;;;;;;;;;;5033654;28;19920;-57
2022/03/18 10:25:16;;;;;;;;;;;;;;;;;;5033060;28;19909;-59
2022/03/18 10:27:43;;;;;;;;;;;;;;;;;;5033175;28;19909;-57
2022/03/18 10:30:09;;;;;;;;;;;;;;;;;;5033077;28;19917;-56
2022/03/18 10:32:36;;;;;;;;;;;;;;;;;;5033142;28;20000;-59
2022/03/18 10:37:47;;;;;;;;;;;;;;;;;;5032928;28;19929;-59
2022/03/18 10:40:14;;;;;;;;;;;;;;;;;;5032623;28;19916;-57
2022/03/18 10:42:40;;;;;;;;;;;;;;;;;;5032974;28;19909;-51
2022/03/18 10:45:08;;;;;;;;;;;;;;;;;;5032791;28;19936;-49
2022/03/18 10:47:34;;;;;;;;;;;;;;;;;;5032520;28;19940;-57
2022/03/18 10:50:00;;;;;;;;;;;;;;;;;;5032793;28;19913;-59
2022/03/18 10:52:28;;;;;;;;;;;;;;;;;;5032471;28;19948;-50
2022/03/18 10:54:56;;;;;;;;;;;;;;;;;;5032589;28;19909;-53
2022/03/18 10:57:22;;;;;;;;;;;;;;;;;;5032536;28;19988;-49
2022/03/18 10:59:49;;;;;;;;;;;;;;;;;;5032410;28;19916;-55
2022/03/18 11:02:16;;;;;;;;;;;;;;;;;;5032464;28;19963;-52
2022/03/18 11:04:42;;;;;;;;;;;;;;;;;;5032627;28;19909;-57
2022/03/18 11:12:38;;;;;;;;;;;;;;;;;;5012951;28;20314;-56
2022/03/18 11:15:05;;;;;;;;;;;;;;;;;;5012752;28;20257;-58
2022/03/18 11:17:32;;;;;;;;;;;;;;;;;;5012632;28;20307;-51
2022/03/18 11:20:01;;;;;;;;;;;;;;;;;;5012536;28;19963;-53
2022/03/18 11:22:27;;;;;;;;;;;;;;;;;;5012685;28;19910;-46
2022/03/18 11:24:54;;;;;;;;;;;;;;;;;;5012134;28;19913;-56
2022/03/18 11:27:20;;;;;;;;;;;;;;;;;;5012533;28;19909;-46
2022/03/18 11:29:47;;;;;;;;;;;;;;;;;;5012349;28;19987;-60
2022/03/18 11:32:14;;;;;;;;;;;;;;;;;;5012855;28;19913;-56
2022/03/18 11:34:40;;;;;;;;;;;;;;;;;;5012760;28;20371;-57
2022/03/18 11:37:10;;;;;;;;;;;;;;;;;;5012380;28;20448;-60
2022/03/18 11:39:38;;;;;;;;;;;;;;;;;;5012422;28;19917;-57
2022/03/18 11:42:04;;;;;;;;;;;;;;;;;;5012809;28;19910;-58
2022/03/18 11:44:31;;;;;;;;;;;;;;;;;;5012978;28;19956;-53
2022/03/18 11:46:58;;;;;;;;;;;;;;;;;;5012732;28;19975;-53
2022/03/18 11:49:24;;;;;;;;;;;;;;;;;;5012792;28;19909;-56
2022/03/18 11:51:50;;;;;;;;;;;;;;;;;;5012578;28;19948;-58
2022/03/18 11:54:19;;;;;;;;;;;;;;;;;;5012535;28;20309;-58
2022/03/18 11:56:46;;;;;;;;;;;;;;;;;;5012788;28;20000;-59
2022/03/18 11:59:12;;;;;;;;;;;;;;;;;;5012545;28;19917;-58
2022/03/18 12:01:39;;;;;;;;;;;;;;;;;;5012545;28;19913;-51
2022/03/18 12:04:06;;;;;;;;;;;;;;;;;;5013844;28;19910;-57
2022/03/18 12:06:33;;;;;;;;;;;;;;;;;;5016657;28;19955;-56
2022/03/18 12:08:59;;;;;;;;;;;;;;;;;;5016173;28;20147;-56
2022/03/18 12:11:26;;;;;;;;;;;;;;;;;;5015835;28;19910;-53
2022/03/18 12:13:52;;;;;;;;;;;;;;;;;;5016128;28;19984;-59
2022/03/18 12:16:19;;;;;;;;;;;;;;;;;;5015952;28;19909;-53
2022/03/18 12:18:46;;;;;;;;;;;;;;;;;;5016269;28;19924;-58
2022/03/18 12:21:13;;;;;;;;;;;;;;;;;;5015985;28;19910;-57
2022/03/18 12:23:39;;;;;;;;;;;;;;;;;;5015761;28;19914;-54
2022/03/18 12:26:06;;;;;;;;;;;;;;;;;;5015778;28;19917;-57
2022/03/18 12:28:32;;;;;;;;;;;;;;;;;;5015951;28;19917;-59
2022/03/18 12:30:58;;;;;;;;;;;;;;;;;;5015802;28;19964;-56
2022/03/18 12:33:25;;;;;;;;;;;;;;;;;;5015574;28;19992;-51
2022/03/18 12:35:51;;;;;;;;;;;;;;;;;;5015865;28;20023;-59
2022/03/18 12:38:18;;;;;;;;;;;;;;;;;;5015217;28;19922;-58
2022/03/18 12:40:44;;;;;;;;;;;;;;;;;;5015086;28;19916;-57
2022/03/18 12:43:11;;;;;;;;;;;;;;;;;;5015113;28;19957;-54
2022/03/18 12:45:38;;;;;;;;;;;;;;;;;;5011364;28;19920;-57
2022/03/18 12:48:05;;;;;;;;;;;;;;;;;;5012182;28;19944;-59
2022/03/18 12:50:32;;;;;;;;;;;;;;;;;;5011597;28;19910;-58
2022/03/18 12:52:58;;;;;;;;;;;;;;;;;;5013493;28;19917;-54
2022/03/18 12:55:25;;;;;;;;;;;;;;;;;;5011428;28;19910;-47
2022/03/18 12:57:51;;;;;;;;;;;;;;;;;;5012051;28;20048;-59
2022/03/18 13:00:18;;;;;;;;;;;;;;;;;;5012001;28;19920;-54
2022/03/18 13:02:44;;;;;;;;;;;;;;;;;;5012145;28;19909;-54
2022/03/18 13:05:15;;;;;;;;;;;;;;;;;;5011224;28;19920;-55
2022/03/18 13:07:41;;;;;;;;;;;;;;;;;;5013237;28;19971;-57
2022/03/18 13:10:07;;;;;;;;;;;;;;;;;;5010102;28;20009;-55
2022/03/18 13:12:37;;;;;;;;;;;;;;;;;;5010408;28;19948;-60
2022/03/18 13:15:04;;;;;;;;;;;;;;;;;;5013122;28;19922;-60
2022/03/18 13:17:32;;;;;;;;;;;;;;;;;;5011057;28;19917;-57
2022/03/18 13:19:59;;;;;;;;;;;;;;;;;;5011696;28;19909;-60
2022/03/18 13:22:25;;;;;;;;;;;;;;;;;;5010197;28;19909;-59
2022/03/18 13:24:52;;;;;;;;;;;;;;;;;;5012764;28;19932;-58
2022/03/18 13:27:18;;;;;;;;;;;;;;;;;;5013502;28;19909;-57
2022/03/18 13:35:13;;;;;;;;;;;;;;;;;;5011162;28;19916;-53
2022/03/18 13:37:40;;;;;;;;;;;;;;;;;;5012939;28;19929;-57
2022/03/18 13:40:06;;;;;;;;;;;;;;;;;;5012275;28;19914;-56
2022/03/18 13:42:33;;;;;;;;;;;;;;;;;;5010783;28;19972;-57
2022/03/18 13:44:59;;;;;;;;;;;;;;;;;;5012550;28;19953;-55
2022/03/18 13:47:27;;;;;;;;;;;;;;;;;;5013001;28;19910;-53
2022/03/18 13:49:54;;;;;;;;;;;;;;;;;;5013151;28;19920;-55
2022/03/18 13:52:20;;;;;;;;;;;;;;;;;;5010460;28;20320;-58
2022/03/18 13:54:50;;;;;;;;;;;;;;;;;;5012779;28;19916;-55
2022/03/18 13:57:17;;;;;;;;;;;;;;;;;;5012676;28;19916;-59
2022/03/18 13:59:44;;;;;;;;;;;;;;;;;;5012627;28;19922;-55
2022/03/18 14:02:10;;;;;;;;;;;;;;;;;;5009311;28;19910;-58
2022/03/18 14:04:37;;;;;;;;;;;;;;;;;;5013044;28;19909;-59
2022/03/18 14:07:03;;;;;;;;;;;;;;;;;;5012333;28;19909;-58
2022/03/18 14:09:30;;;;;;;;;;;;;;;;;;5012434;28;20271;-59
2022/03/18 14:12:11;;;;;;;;;;;;;;;;;;5009726;28;19964;-59
2022/03/18 14:14:38;;;;;;;;;;;;;;;;;;5008802;28;19913;-57
2022/03/18 14:17:04;;;;;;;;;;;;;;;;;;5012124;28;19960;-58
2022/03/18 14:19:31;;;;;;;;;;;;;;;;;;5012327;28;19972;-57
2022/03/18 14:21:57;;;;;;;;;;;;;;;;;;5008924;28;20008;-60
2022/03/18 14:24:24;;;;;;;;;;;;;;;;;;5012615;28;19914;-59
2022/03/18 14:26:50;;;;;;;;;;;;;;;;;;5011619;28;20443;-59
2022/03/18 14:29:17;;;;;;;;;;;;;;;;;;5012511;28;20324;-59
2022/03/18 14:31:44;;;;;;;;;;;;;;;;;;4991866;28;19960;-59
2022/03/18 14:34:10;;;;;;;;;;;;;;;;;;5012533;28;19956;-52
2022/03/18 14:36:37;;;;;;;;;;;;;;;;;;5012010;28;19924;-58
2022/03/18 14:39:03;;;;;;;;;;;;;;;;;;5012346;28;20472;-59
2022/03/18 14:41:29;;;;;;;;;;;;;;;;;;5008906;28;20283;-58
2022/03/18 14:43:56;;;;;;;;;;;;;;;;;;5012152;28;20257;-57
2022/03/18 14:46:22;;;;;;;;;;;;;;;;;;5012017;28;19909;-58
2022/03/18 14:48:49;;;;;;;;;;;;;;;;;;5010290;28;19975;-49
2022/03/18 14:51:16;;;;;;;;;;;;;;;;;;5012202;28;19916;-55
2022/03/18 14:53:42;;;;;;;;;;;;;;;;;;5011296;28;20279;-54
2022/03/18 14:56:17;;;;;;;;;;;;;;;;;;5011949;28;20283;-50
2022/03/18 14:58:44;;;;;;;;;;;;;;;;;;5012011;28;20018;-58
2022/03/18 15:01:10;;;;;;;;;;;;;;;;;;5012238;28;19960;-57
2022/03/18 15:03:37;;;;;;;;;;;;;;;;;;5010070;28;19916;-54
2022/03/18 15:06:03;;;;;;;;;;;;;;;;;;5011795;28;19910;-57
2022/03/18 15:08:30;;;;;;;;;;;;;;;;;;5007883;28;19917;-56
2022/03/18 15:10:56;;;;;;;;;;;;;;;;;;5011856;28;19917;-54
2022/03/18 15:13:23;;;;;;;;;;;;;;;;;;5009479;28;19909;-54
2022/03/18 15:15:49;;;;;;;;;;;;;;;;;;5011175;28;20385;-56
2022/03/18 15:18:16;;;;;;;;;;;;;;;;;;5011798;28;19945;-55
2022/03/18 15:20:42;;;;;;;;;;;;;;;;;;5011806;28;19916;-52
2022/03/18 15:23:09;;;;;;;;;;;;;;;;;;5008418;28;19913;-54
2022/03/18 15:25:35;;;;;;;;;;;;;;;;;;5011210;28;19918;-47
2022/03/18 15:28:02;;;;;;;;;;;;;;;;;;5011812;28;19967;-48
2022/03/18 15:30:29;;;;;;;;;;;;;;;;;;5011762;28;20553;-57
2022/03/18 15:32:55;;;;;;;;;;;;;;;;;;5008480;28;19932;-56
2022/03/18 15:35:22;;;;;;;;;;;;;;;;;;5011469;28;20269;-48
2022/03/18 15:37:49;;;;;;;;;;;;;;;;;;5011079;28;19921;-54
2022/03/18 15:40:15;;;;;;;;;;;;;;;;;;5014903;28;19951;-50
2022/03/18 15:42:43;;;;;;;;;;;;;;;;;;5012850;28;19917;-50
2022/03/18 15:45:10;;;;;;;;;;;;;;;;;;5015605;28;20000;-52
2022/03/18 15:47:36;;;;;;;;;;;;;;;;;;5014132;28;19909;-50
2022/03/18 15:50:22;;;;;;;;;;;;;;;;;;5015287;28;19914;-55
2022/03/18 15:52:49;;;;;;;;;;;;;;;;;;5009559;28;19921;-53
2022/03/18 15:55:15;;;;;;;;;;;;;;;;;;5015415;28;19909;-55
2022/03/18 15:57:42;;;;;;;;;;;;;;;;;;5014541;28;20257;-58
2022/03/18 16:00:08;;;;;;;;;;;;;;;;;;5011460;28;19910;-54
2022/03/18 16:02:34;;;;;;;;;;;;;;;;;;5012210;28;19918;-58
2022/03/18 16:05:01;;;;;;;;;;;;;;;;;;5014960;28;19910;-56
2022/03/18 16:07:28;;;;;;;;;;;;;;;;;;5014275;28;19916;-57
2022/03/18 16:09:54;;;;;;;;;;;;;;;;;;5014678;28;19956;-58
2022/03/18 16:12:21;;;;;;;;;;;;;;;;;;5011441;28;19910;-59
2022/03/18 16:14:49;;;;;;;;;;;;;;;;;;5015077;28;19963;-55
2022/03/18 16:17:15;;;;;;;;;;;;;;;;;;5014523;28;19910;-44
2022/03/18 16:19:42;;;;;;;;;;;;;;;;;;5014577;28;19972;-59
2022/03/18 16:22:29;;;;;;;;;;;;;;;;;;5011259;28;19918;-53
2022/03/18 16:24:55;;;;;;;;;;;;;;;;;;5014945;28;19913;-54
2022/03/18 16:27:24;;;;;;;;;;;;;;;;;;5014285;28;19910;-53
2022/03/18 16:29:50;;;;;;;;;;;;;;;;;;5014464;28;19920;-56
2022/03/18 16:32:17;;;;;;;;;;;;;;;;;;5011146;28;19910;-54
2022/03/18 16:34:43;;;;;;;;;;;;;;;;;;5014752;28;19910;-55
2022/03/18 16:37:10;;;;;;;;;;;;;;;;;;5013812;28;20022;-49
2022/03/18 16:39:36;;;;;;;;;;;;;;;;;;5014463;28;20233;-59
2022/03/18 16:42:02;;;;;;;;;;;;;;;;;;5011270;28;19909;-58
2022/03/18 16:44:29;;;;;;;;;;;;;;;;;;5014473;28;19916;-51
2022/03/18 16:49:40;;;;;;;;;;;;;;;;;;5014252;28;20021;-56
2022/03/18 16:52:06;;;;;;;;;;;;;;;;;;4997864;28;20276;-58
2022/03/18 16:54:33;;;;;;;;;;;;;;;;;;5015572;28;20280;-58
2022/03/18 16:57:00;;;;;;;;;;;;;;;;;;5015451;28;19919;-58
2022/03/18 16:59:26;;;;;;;;;;;;;;;;;;5015209;28;20328;-58
2022/03/18 17:01:53;;;;;;;;;;;;;;;;;;5015265;28;19919;-58
2022/03/18 17:04:22;;;;;;;;;;;;;;;;;;4997608;28;19909;-56
2022/03/18 17:06:48;;;;;;;;;;;;;;;;;;5015420;28;19909;-57
2022/03/18 17:09:15;;;;;;;;;;;;;;;;;;5015173;28;19945;-58
2022/03/18 17:11:41;;;;;;;;;;;;;;;;;;5014871;28;19916;-58
2022/03/18 17:14:08;;;;;;;;;;;;;;;;;;5015124;28;20307;-52
2022/03/18 17:16:34;;;;;;;;;;;;;;;;;;4996618;28;19916;-54